Time;durP1;ratioP1;P1;durP2;ratioP2;P2;SDS_P1;SDS_P2;PMS_P1;PMS_P2;Temp;Humidity;BMP_temperature;BMP_pressure;BME280_temperature;BME280_humidity;BME280_pressure;Samples;Min_cycle;Max_cycle;Signal;HPM_P1;HPM_P2
2022/03/12 00:00:30;;;;;;;5.23;2.97;;;1.50;41.50;;;;;;4136778;28;20487;-79
2022/03/12 00:02:32;;;;;;;7.80;3.27;;;1.50;41.30;;;;;;4139323;28;20481;-78
2022/03/12 00:04:34;;;;;;;5.57;3.07;;;1.50;41.30;;;;;;4133000;28;20475;-79
2022/03/12 00:06:36;;;;;;;4.93;2.70;;;1.40;41.30;;;;;;4137444;28;20471;-79
2022/03/12 00:08:44;;;;;;;5.37;2.67;;;1.60;41.40;;;;;;4141273;28;20498;-79
2022/03/12 00:10:46;;;;;;;5.57;2.50;;;1.40;41.50;;;;;;4143235;28;20459;-78
2022/03/12 00:12:50;;;;;;;4.53;2.83;;;1.50;41.40;;;;;;4143545;28;20470;-78
2022/03/12 00:14:51;;;;;;;4.97;2.43;;;1.30;41.40;;;;;;4142333;28;20471;-78
2022/03/12 00:16:54;;;;;;;4.67;2.60;;;1.30;41.70;;;;;;4124270;28;20467;-78
2022/03/12 00:18:58;;;;;;;5.40;2.60;;;2.20;42.20;;;;;;4121585;28;20493;-78
2022/03/12 00:21:02;;;;;;;6.00;2.80;;;1.30;41.80;;;;;;4127802;28;20474;-78
2022/03/12 00:23:07;;;;;;;5.23;2.80;;;1.30;41.70;;;;;;4136844;28;20451;-79
2022/03/12 00:25:10;;;;;;;5.17;2.30;;;1.20;41.70;;;;;;4124144;28;20529;-78
2022/03/12 00:27:13;;;;;;;6.10;2.83;;;1.20;41.70;;;;;;4131137;28;20469;-77
2022/03/12 00:29:15;;;;;;;5.27;2.50;;;1.20;41.90;;;;;;4137181;28;20487;-78
2022/03/12 00:31:17;;;;;;;7.20;2.53;;;1.20;42.10;;;;;;4123300;28;20452;-78
2022/03/12 00:33:21;;;;;;;7.83;2.53;;;1.50;42.20;;;;;;4120569;28;20467;-78
2022/03/12 00:35:22;;;;;;;5.97;2.87;;;1.10;42.00;;;;;;4124603;28;20463;-79
2022/03/12 00:37:24;;;;;;;6.43;3.07;;;1.10;41.90;;;;;;4135185;28;20965;-77
2022/03/12 00:39:30;;;;;;;4.33;2.43;;;1.10;41.80;;;;;;4128482;28;20502;-78
2022/03/12 00:41:31;;;;;;;6.10;3.13;;;1.10;41.70;;;;;;4133168;28;20454;-79
2022/03/12 00:43:33;;;;;;;5.67;2.77;;;1.10;41.50;;;;;;4129770;28;20819;-78
2022/03/12 00:45:35;;;;;;;5.30;2.30;;;1.00;41.40;;;;;;4126154;28;20466;-79
2022/03/12 00:47:37;;;;;;;5.27;2.77;;;1.00;41.50;;;;;;4136592;28;20460;-80
2022/03/12 00:49:40;;;;;;;5.03;2.60;;;1.00;41.40;;;;;;4136994;28;20525;-79
2022/03/12 00:51:44;;;;;;;5.20;2.40;;;1.00;41.40;;;;;;4123317;28;20467;-79
2022/03/12 00:53:46;;;;;;;5.07;2.43;;;0.30;40.90;;;;;;4128179;28;20501;-79
2022/03/12 00:55:48;;;;;;;4.63;2.70;;;1.00;41.10;;;;;;4133230;28;20471;-79
2022/03/12 00:57:49;;;;;;;7.30;2.70;;;0.90;41.00;;;;;;4145034;28;20515;-78
2022/03/12 00:59:51;;;;;;;5.60;2.53;;;0.90;40.80;;;;;;4143820;28;20518;-79
2022/03/12 01:01:53;;;;;;;6.20;2.33;;;0.90;40.80;;;;;;4130681;28;20460;-78
2022/03/12 01:03:55;;;;;;;5.23;2.63;;;0.90;40.70;;;;;;4128398;28;20472;-79
2022/03/12 01:06:02;;;;;;;5.30;2.37;;;1.50;40.80;;;;;;4134429;28;20471;-78
2022/03/12 01:08:05;;;;;;;5.43;2.50;;;0.90;40.50;;;;;;4128785;28;20470;-77
2022/03/12 01:10:07;;;;;;;5.67;2.53;;;0.90;40.50;;;;;;4120753;28;20841;-79
2022/03/12 01:12:10;;;;;;;5.10;2.40;;;0.90;40.30;;;;;;4132191;28;20462;-78
2022/03/12 01:14:12;;;;;;;6.13;2.13;;;0.90;40.10;;;;;;4133859;28;20473;-79
2022/03/12 01:16:15;;;;;;;5.17;2.23;;;0.80;39.80;;;;;;4120890;28;20838;-78
2022/03/12 01:18:20;;;;;;;5.17;2.50;;;0.90;39.70;;;;;;4118282;28;20951;-78
2022/03/12 01:20:22;;;;;;;6.30;2.60;;;0.90;39.50;;;;;;4119731;28;21006;-78
2022/03/12 01:22:30;;;;;;;6.27;2.60;;;0.90;39.20;;;;;;4125317;28;20518;-78
2022/03/12 01:24:33;;;;;;;3.77;2.27;;;0.90;39.10;;;;;;4123365;28;20464;-77
2022/03/12 01:26:35;;;;;;;5.90;2.37;;;0.80;39.10;;;;;;4128204;28;20557;-79
2022/03/12 01:28:37;;;;;;;4.27;2.47;;;0.90;38.90;;;;;;4134688;28;20484;-78
2022/03/12 01:30:41;;;;;;;6.70;3.00;;;1.10;39.00;;;;;;4143613;28;20496;-77
2022/03/12 01:32:42;;;;;;;8.00;2.30;;;0.90;38.90;;;;;;4141951;28;20503;-78
2022/03/12 01:34:44;;;;;;;3.97;2.10;;;0.80;38.70;;;;;;4142950;28;20459;-77
2022/03/12 01:36:46;;;;;;;4.47;2.43;;;0.80;38.60;;;;;;4142410;28;20455;-79
2022/03/12 01:38:51;;;;;;;5.23;2.57;;;0.80;38.40;;;;;;4135464;28;20508;-78
2022/03/12 01:40:53;;;;;;;5.57;2.30;;;0.80;38.20;;;;;;4135144;28;20513;-79
2022/03/12 01:42:56;;;;;;;5.60;2.47;;;0.80;38.10;;;;;;4132819;28;20484;-79
2022/03/12 01:44:58;;;;;;;3.10;2.00;;;0.80;38.00;;;;;;4121438;28;20471;-79
2022/03/12 01:47:00;;;;;;;3.97;2.17;;;0.80;37.90;;;;;;4139762;28;21000;-79
2022/03/12 01:49:06;;;;;;;4.40;2.00;;;0.80;38.10;;;;;;4140157;28;20490;-79
2022/03/12 01:51:08;;;;;;;4.53;2.47;;;0.80;38.10;;;;;;4127871;28;20459;-79
2022/03/12 01:53:11;;;;;;;4.63;2.37;;;0.80;37.90;;;;;;4131455;28;20468;-79
2022/03/12 01:55:15;;;;;;;4.70;2.20;;;0.80;37.90;;;;;;4131649;28;20477;-78
2022/03/12 01:57:17;;;;;;;3.83;1.90;;;0.80;38.00;;;;;;4124574;28;20488;-79
2022/03/12 01:59:19;;;;;;;5.20;2.17;;;0.80;38.20;;;;;;4118386;28;20486;-78
2022/03/12 02:01:22;;;;;;;5.70;2.30;;;0.80;38.20;;;;;;4118105;28;20495;-79
2022/03/12 02:03:29;;;;;;;3.03;1.80;;;0.80;38.40;;;;;;4127000;28;20476;-78
2022/03/12 02:05:31;;;;;;;5.47;2.40;;;0.60;38.10;;;;;;4131592;28;20556;-79
2022/03/12 02:07:33;;;;;;;5.00;2.10;;;0.80;38.10;;;;;;4135028;28;20898;-80
2022/03/12 02:09:35;;;;;;;4.87;2.30;;;1.60;38.50;;;;;;4129394;28;20502;-79
2022/03/12 02:11:39;;;;;;;5.00;2.10;;;0.70;37.90;;;;;;4136137;28;20466;-79
2022/03/12 02:13:41;;;;;;;4.10;1.90;;;0.70;38.10;;;;;;4134986;28;20531;-79
2022/03/12 02:15:44;;;;;;;4.73;2.20;;;0.70;38.10;;;;;;4128960;28;20985;-79
2022/03/12 02:17:46;;;;;;;4.33;2.00;;;0.70;38.10;;;;;;4120893;28;20469;-79
2022/03/12 02:19:48;;;;;;;4.50;1.90;;;0.70;37.90;;;;;;4127154;28;20542;-79
2022/03/12 02:21:52;;;;;;;4.70;2.40;;;0.70;37.80;;;;;;4132180;28;20481;-80
2022/03/12 02:23:56;;;;;;;3.83;1.90;;;0.70;37.90;;;;;;4136700;28;20448;-79
2022/03/12 02:26:03;;;;;;;4.40;2.00;;;0.70;37.50;;;;;;4123394;28;20468;-78
2022/03/12 02:28:16;;;;;;;3.97;1.97;;;0.70;37.50;;;;;;4128801;28;20481;-80
2022/03/12 02:30:18;;;;;;;3.60;1.80;;;0.70;37.50;;;;;;4132267;28;20481;-79
2022/03/12 02:32:20;;;;;;;4.30;2.30;;;0.70;37.30;;;;;;4127189;28;20847;-80
2022/03/12 02:34:25;;;;;;;4.70;2.00;;;0.70;37.10;;;;;;4126388;28;20469;-79
2022/03/12 02:36:27;;;;;;;4.57;2.20;;;0.70;37.10;;;;;;4121834;28;20493;-80
2022/03/12 02:38:30;;;;;;;4.93;2.40;;;0.70;37.20;;;;;;4123630;28;20502;-79
2022/03/12 02:40:34;;;;;;;4.50;2.00;;;0.60;37.30;;;;;;4124968;28;20516;-80
2022/03/12 02:42:37;;;;;;;3.53;1.90;;;0.60;37.20;;;;;;4120633;28;20485;-80
2022/03/12 02:44:38;;;;;;;5.47;2.17;;;0.60;37.10;;;;;;4125686;28;20868;-80
2022/03/12 02:46:41;;;;;;;3.27;1.60;;;0.60;37.10;;;;;;4129948;28;20635;-80
2022/03/12 02:48:49;;;;;;;4.10;1.80;;;0.60;37.10;;;;;;4133147;28;20693;-79
2022/03/12 02:50:52;;;;;;;4.10;1.87;;;0.60;37.20;;;;;;4130760;28;20503;-78
2022/03/12 02:52:54;;;;;;;4.17;2.13;;;0.60;37.00;;;;;;4120839;28;20508;-79
2022/03/12 02:54:58;;;;;;;4.73;2.10;;;0.60;37.10;;;;;;4125299;28;20474;-79
2022/03/12 02:57:03;;;;;;;4.07;1.97;;;0.60;37.10;;;;;;4137079;28;21010;-79
2022/03/12 02:59:14;;;;;;;5.20;2.27;;;0.60;36.90;;;;;;4136508;28;20873;-78
2022/03/12 03:01:15;;;;;;;5.47;2.37;;;1.00;37.00;;;;;;4120617;28;20540;-79
2022/03/12 03:03:18;;;;;;;3.93;2.40;;;0.50;36.90;;;;;;4121223;28;20503;-79
2022/03/12 03:05:31;;;;;;;3.17;1.97;;;0.60;36.80;;;;;;4131389;28;20469;-80
2022/03/12 03:07:35;;;;;;;4.07;1.90;;;0.60;36.60;;;;;;4124420;28;20911;-79
2022/03/12 03:09:39;;;;;;;4.10;1.90;;;1.70;37.10;;;;;;4119163;28;20492;-80
2022/03/12 03:11:41;;;;;;;5.43;2.13;;;0.50;36.20;;;;;;4131270;28;20482;-79
2022/03/12 03:13:47;;;;;;;4.90;2.20;;;0.60;36.10;;;;;;4131912;28;20834;-79
2022/03/12 03:15:51;;;;;;;4.97;1.90;;;0.60;36.10;;;;;;4128780;28;20462;-79
2022/03/12 03:17:53;;;;;;;4.63;2.03;;;0.60;36.20;;;;;;4137126;28;20469;-79
2022/03/12 03:19:55;;;;;;;4.93;2.20;;;0.60;36.30;;;;;;4132206;28;20496;-80
2022/03/12 03:21:59;;;;;;;3.03;1.80;;;0.60;36.50;;;;;;4133584;28;20495;-79
2022/03/12 03:24:00;;;;;;;4.80;2.10;;;0.60;36.60;;;;;;4137098;28;20458;-79
2022/03/12 03:26:04;;;;;;;3.70;2.00;;;0.50;36.60;;;;;;4154934;28;20465;-79
2022/03/12 03:28:07;;;;;;;2.90;1.70;;;0.60;36.70;;;;;;4155175;28;20453;-79
2022/03/12 03:30:11;;;;;;;5.83;2.00;;;0.50;36.90;;;;;;4137281;28;20557;-80
2022/03/12 03:32:14;;;;;;;4.80;2.03;;;0.50;36.70;;;;;;4123500;28;20448;-80
2022/03/12 03:34:16;;;;;;;4.73;1.97;;;0.60;37.00;;;;;;4128045;28;20628;-79
2022/03/12 03:36:18;;;;;;;4.80;1.97;;;1.00;37.10;;;;;;4134632;28;20464;-78
2022/03/12 03:38:20;;;;;;;5.23;2.10;;;0.70;36.90;;;;;;4143112;28;20483;-79
2022/03/12 03:40:22;;;;;;;4.90;2.13;;;0.60;36.80;;;;;;4143437;28;20506;-80
2022/03/12 03:42:24;;;;;;;5.27;2.17;;;0.20;36.70;;;;;;4144402;28;20489;-79
2022/03/12 03:44:29;;;;;;;6.67;2.30;;;0.50;37.10;;;;;;4147595;28;20509;-80
2022/03/12 03:46:33;;;;;;;3.90;1.87;;;0.50;37.00;;;;;;4147850;28;20450;-80
2022/03/12 03:48:38;;;;;;;4.03;1.77;;;0.50;37.00;;;;;;4140478;28;20473;-80
2022/03/12 03:50:42;;;;;;;4.20;2.00;;;0.50;37.10;;;;;;4141099;28;20459;-80
2022/03/12 03:52:43;;;;;;;3.93;2.10;;;0.50;37.20;;;;;;4146018;28;20458;-80
2022/03/12 03:54:45;;;;;;;4.90;2.00;;;0.50;37.10;;;;;;4141039;28;20467;-79
2022/03/12 03:56:47;;;;;;;4.53;2.43;;;0.50;37.10;;;;;;4144590;28;20461;-79
2022/03/12 03:58:49;;;;;;;4.67;2.20;;;0.50;37.20;;;;;;4142250;28;20479;-79
2022/03/12 04:00:58;;;;;;;6.00;1.90;;;0.50;37.20;;;;;;4139884;28;20493;-79
2022/03/12 04:03:04;;;;;;;5.33;2.40;;;0.40;37.20;;;;;;4127852;28;20452;-80
2022/03/12 04:05:07;;;;;;;5.77;1.87;;;0.50;37.10;;;;;;4138039;28;20458;-79
2022/03/12 04:07:11;;;;;;;5.63;1.77;;;0.40;37.00;;;;;;4144039;28;20459;-79
2022/03/12 04:09:13;;;;;;;5.10;2.37;;;0.50;37.00;;;;;;4133128;28;20810;-79
2022/03/12 04:11:17;;;;;;;5.57;2.10;;;0.40;37.30;;;;;;4132284;28;20484;-79
2022/03/12 04:13:20;;;;;;;5.30;1.87;;;0.40;37.50;;;;;;4124554;28;20530;-79
2022/03/12 04:15:22;;;;;;;4.17;2.00;;;0.40;37.50;;;;;;4120806;28;20484;-79
2022/03/12 04:17:27;;;;;;;6.13;2.63;;;0.40;37.60;;;;;;4121602;28;20508;-80
2022/03/12 04:19:34;;;;;;;6.00;2.10;;;0.40;37.30;;;;;;4125963;28;20536;-79
2022/03/12 04:21:36;;;;;;;4.67;2.17;;;0.40;37.40;;;;;;4135066;28;20555;-80
2022/03/12 04:23:38;;;;;;;4.17;1.90;;;0.40;37.50;;;;;;4135863;28;20835;-79
2022/03/12 04:25:40;;;;;;;4.27;2.00;;;0.40;37.70;;;;;;4121175;28;20488;-80
2022/03/12 04:27:44;;;;;;;5.47;2.20;;;0.40;37.70;;;;;;4134587;28;20512;-80
2022/03/12 04:29:45;;;;;;;4.07;2.10;;;1.10;38.00;;;;;;4126147;28;20485;-80
2022/03/12 04:31:47;;;;;;;4.77;2.20;;;0.40;37.60;;;;;;4120707;28;20486;-79
2022/03/12 04:33:49;;;;;;;4.97;2.20;;;0.40;37.60;;;;;;4129703;28;20554;-79
2022/03/12 04:35:52;;;;;;;4.73;2.17;;;0.40;37.30;;;;;;4122763;28;20490;-79
2022/03/12 04:37:54;;;;;;;4.17;1.83;;;0.40;37.20;;;;;;4125877;28;20576;-80
2022/03/12 04:39:56;;;;;;;3.83;2.10;;;0.40;37.40;;;;;;4134324;28;20961;-81
2022/03/12 04:41:58;;;;;;;3.63;2.10;;;0.30;37.40;;;;;;4127129;28;21004;-79
2022/03/12 04:44:00;;;;;;;3.80;2.20;;;0.40;37.50;;;;;;4129425;28;20954;-79
2022/03/12 04:46:02;;;;;;;4.83;1.97;;;0.30;37.50;;;;;;4122032;28;20454;-79
2022/03/12 04:48:06;;;;;;;3.83;2.10;;;0.30;37.50;;;;;;4134684;28;20479;-79
2022/03/12 04:50:09;;;;;;;3.63;2.00;;;0.40;37.60;;;;;;4127826;28;21007;-78
2022/03/12 04:52:13;;;;;;;6.23;2.40;;;0.30;37.50;;;;;;4119355;28;20473;-80
2022/03/12 04:54:15;;;;;;;4.57;2.17;;;0.30;37.50;;;;;;4126706;28;20471;-80
2022/03/12 04:56:16;;;;;;;4.93;2.10;;;0.30;37.50;;;;;;4129981;28;20473;-79
2022/03/12 04:58:19;;;;;;;6.17;2.30;;;0.70;37.60;;;;;;4125162;28;20492;-79
2022/03/12 05:00:26;;;;;;;3.13;1.90;;;0.10;37.40;;;;;;4128303;28;20957;-81
2022/03/12 05:02:29;;;;;;;3.97;1.97;;;0.30;37.40;;;;;;4131898;28;20493;-80
2022/03/12 05:04:31;;;;;;;5.67;2.20;;;0.30;37.40;;;;;;4132929;28;20467;-79
2022/03/12 05:06:35;;;;;;;5.17;2.50;;;0.50;37.40;;;;;;4121463;28;21038;-80
2022/03/12 05:08:38;;;;;;;4.73;2.20;;;0.30;37.30;;;;;;4124213;28;20555;-79
2022/03/12 05:10:40;;;;;;;4.93;1.97;;;0.30;37.40;;;;;;4134047;28;20464;-81
2022/03/12 05:12:43;;;;;;;5.43;2.20;;;0.30;37.40;;;;;;4128862;28;21010;-80
2022/03/12 05:14:46;;;;;;;5.63;2.20;;;0.70;37.50;;;;;;4124005;28;20464;-81
2022/03/12 05:16:49;;;;;;;5.57;2.33;;;1.30;37.60;;;;;;4134328;28;20469;-81
2022/03/12 05:18:52;;;;;;;5.57;2.40;;;0.30;37.00;;;;;;4127848;28;20506;-80
2022/03/12 05:20:54;;;;;;;5.77;2.70;;;0.30;37.30;;;;;;4132865;28;20475;-80
2022/03/12 05:22:56;;;;;;;4.47;2.10;;;0.30;36.90;;;;;;4132004;28;20483;-80
2022/03/12 05:25:00;;;;;;;5.17;2.23;;;0.30;37.00;;;;;;4128378;28;20474;-80
2022/03/12 05:27:02;;;;;;;3.27;2.00;;;0.30;36.70;;;;;;4128449;28;20460;-79
2022/03/12 05:29:04;;;;;;;5.37;2.37;;;0.30;36.50;;;;;;4124549;28;20482;-80
2022/03/12 05:31:06;;;;;;;6.27;2.80;;;0.70;36.50;;;;;;4123042;28;20480;-80
2022/03/12 05:33:08;;;;;;;5.37;2.20;;;0.30;36.30;;;;;;4132682;28;20452;-81
2022/03/12 05:35:10;;;;;;;4.37;2.27;;;0.40;36.30;;;;;;4132410;28;20467;-80
2022/03/12 05:37:12;;;;;;;7.10;2.07;;;0.40;36.20;;;;;;4119361;28;20958;-80
2022/03/12 05:39:15;;;;;;;4.90;2.33;;;0.40;36.30;;;;;;4119607;28;20497;-79
2022/03/12 05:41:18;;;;;;;6.57;2.70;;;0.40;36.10;;;;;;4135461;28;20480;-79
2022/03/12 05:43:21;;;;;;;4.90;2.20;;;0.40;35.90;;;;;;4128191;28;20975;-79
2022/03/12 05:45:24;;;;;;;4.37;2.20;;;0.40;35.80;;;;;;4129998;28;20472;-80
2022/03/12 05:47:26;;;;;;;4.37;2.30;;;0.40;36.00;;;;;;4144070;28;20514;-79
2022/03/12 05:49:27;;;;;;;5.73;2.50;;;0.40;36.00;;;;;;4133647;28;20505;-79
2022/03/12 05:51:30;;;;;;;4.83;2.30;;;0.40;36.00;;;;;;4133664;28;20528;-80
2022/03/12 05:53:35;;;;;;;4.73;2.50;;;0.40;36.00;;;;;;4148267;28;20457;-80
2022/03/12 05:55:39;;;;;;;4.93;2.10;;;0.90;35.90;;;;;;4146123;28;20460;-79
2022/03/12 05:57:43;;;;;;;4.77;2.03;;;0.50;35.90;;;;;;4144947;28;20483;-78
2022/03/12 05:59:44;;;;;;;4.27;2.20;;;0.50;36.00;;;;;;4136245;28;20500;-79
2022/03/12 06:01:46;;;;;;;5.37;2.50;;;0.50;35.80;;;;;;4144174;28;20571;-79
2022/03/12 06:03:48;;;;;;;5.47;2.30;;;0.50;35.70;;;;;;4126847;28;20460;-79
2022/03/12 06:05:59;;;;;;;5.57;2.40;;;0.50;35.70;;;;;;4128445;28;20969;-78
2022/03/12 06:08:01;;;;;;;5.13;2.67;;;0.50;35.70;;;;;;4122946;28;20519;-79
2022/03/12 06:10:03;;;;;;;6.13;2.63;;;0.50;35.80;;;;;;4131504;28;20469;-81
2022/03/12 06:12:11;;;;;;;5.27;2.70;;;0.50;35.70;;;;;;4123179;28;20456;-80
2022/03/12 06:14:16;;;;;;;6.07;2.60;;;0.50;35.80;;;;;;4119546;28;20531;-80
2022/03/12 06:16:18;;;;;;;5.17;2.30;;;0.50;35.90;;;;;;4121632;28;20452;-80
2022/03/12 06:18:22;;;;;;;4.67;2.20;;;0.50;36.00;;;;;;4120704;28;20512;-81
2022/03/12 06:20:24;;;;;;;4.10;2.20;;;1.00;36.40;;;;;;4130937;28;20473;-80
2022/03/12 06:22:26;;;;;;;5.37;2.37;;;0.50;36.10;;;;;;4136136;28;20483;-81
2022/03/12 06:24:27;;;;;;;5.40;2.40;;;0.50;36.20;;;;;;4135567;28;20958;-80
2022/03/12 06:26:35;;;;;;;5.37;2.70;;;0.50;36.00;;;;;;4121546;28;20521;-80
2022/03/12 06:28:37;;;;;;;5.93;2.57;;;0.60;36.00;;;;;;4135508;28;20489;-79
2022/03/12 06:30:41;;;;;;;4.93;2.33;;;0.50;36.10;;;;;;4130139;28;20508;-79
2022/03/12 06:32:43;;;;;;;4.93;2.33;;;0.60;36.20;;;;;;4132989;28;20506;-79
2022/03/12 06:34:47;;;;;;;4.63;2.40;;;0.60;36.10;;;;;;4136665;28;20456;-79
2022/03/12 06:36:50;;;;;;;4.67;2.63;;;0.60;36.10;;;;;;4138409;28;20524;-80
2022/03/12 06:38:52;;;;;;;5.10;2.43;;;0.60;35.60;;;;;;4138139;28;21072;-78
2022/03/12 06:40:56;;;;;;;6.47;2.50;;;0.60;35.50;;;;;;4129937;28;20511;-80
2022/03/12 06:43:01;;;;;;;4.83;2.13;;;0.70;35.80;;;;;;4137912;28;20852;-79
2022/03/12 06:45:04;;;;;;;3.47;2.17;;;0.70;35.90;;;;;;4129399;28;20489;-80
2022/03/12 06:47:09;;;;;;;5.60;2.40;;;0.70;36.00;;;;;;4122293;28;20486;-79
2022/03/12 06:49:10;;;;;;;4.97;2.60;;;0.70;36.00;;;;;;4125843;28;20493;-80
2022/03/12 06:51:13;;;;;;;5.30;2.40;;;0.70;36.00;;;;;;4124527;28;20459;-80
2022/03/12 06:53:16;;;;;;;6.10;2.33;;;0.70;36.00;;;;;;4127872;28;20824;-80
2022/03/12 06:55:19;;;;;;;5.40;2.00;;;0.70;35.80;;;;;;4136007;28;20460;-80
2022/03/12 06:57:21;;;;;;;4.77;2.50;;;0.70;35.80;;;;;;4129310;28;20479;-81
2022/03/12 06:59:23;;;;;;;5.77;2.43;;;0.80;35.60;;;;;;4134629;28;20555;-81
2022/03/12 07:01:25;;;;;;;6.40;2.80;;;0.80;35.70;;;;;;4127546;28;20833;-81
2022/03/12 07:03:28;;;;;;;5.70;2.47;;;0.80;35.70;;;;;;4136930;28;20485;-80
2022/03/12 07:05:30;;;;;;;6.10;2.40;;;0.90;35.70;;;;;;4131958;28;20509;-80
2022/03/12 07:07:32;;;;;;;5.17;2.60;;;0.90;35.80;;;;;;4135768;28;20554;-81
2022/03/12 07:09:34;;;;;;;5.00;2.30;;;0.90;35.70;;;;;;4131180;28;20493;-80
2022/03/12 07:11:36;;;;;;;5.07;2.40;;;0.90;35.40;;;;;;4125449;28;20513;-79
2022/03/12 07:13:38;;;;;;;5.43;2.60;;;1.20;35.60;;;;;;4124129;28;20515;-80
2022/03/12 07:15:40;;;;;;;4.80;2.30;;;1.00;35.50;;;;;;4133458;28;20554;-79
2022/03/12 07:17:43;;;;;;;6.83;2.40;;;1.00;35.60;;;;;;4133946;28;20446;-79
2022/03/12 07:19:46;;;;;;;4.27;2.20;;;1.00;35.50;;;;;;4131449;28;20489;-79
2022/03/12 07:21:49;;;;;;;3.83;2.10;;;1.10;35.50;;;;;;4135808;28;20457;-80
2022/03/12 07:23:51;;;;;;;4.13;2.00;;;1.10;35.20;;;;;;4137082;28;21242;-79
2022/03/12 07:25:55;;;;;;;14.83;3.20;;;1.10;35.10;;;;;;4123607;28;20462;-79
2022/03/12 07:27:57;;;;;;;5.27;2.30;;;1.20;34.40;;;;;;4121463;28;20525;-81
2022/03/12 07:30:00;;;;;;;4.03;2.13;;;1.20;34.30;;;;;;4120927;28;20471;-80
2022/03/12 07:32:02;;;;;;;5.73;2.30;;;1.30;34.40;;;;;;4133935;28;20495;-79
2022/03/12 07:34:03;;;;;;;5.47;2.27;;;1.30;34.50;;;;;;4128953;28;20524;-80
2022/03/12 07:36:07;;;;;;;8.67;2.87;;;1.30;34.50;;;;;;4135978;28;21045;-79
2022/03/12 07:38:09;;;;;;;6.63;2.67;;;1.60;35.00;;;;;;4130549;28;20502;-79
2022/03/12 07:40:13;;;;;;;4.97;2.47;;;1.30;34.10;;;;;;4130435;28;20479;-79
2022/03/12 07:42:15;;;;;;;4.47;2.13;;;1.40;34.10;;;;;;4138075;28;20490;-80
2022/03/12 07:44:17;;;;;;;6.50;2.73;;;1.50;34.20;;;;;;4137542;28;20490;-79
2022/03/12 07:46:20;;;;;;;4.90;2.63;;;1.50;34.30;;;;;;4142175;28;20463;-81
2022/03/12 07:48:21;;;;;;;4.07;2.27;;;1.50;34.00;;;;;;4140262;28;20506;-79
2022/03/12 07:50:23;;;;;;;5.00;2.53;;;1.50;33.90;;;;;;4133368;28;20476;-79
2022/03/12 07:52:26;;;;;;;4.23;2.40;;;1.80;33.90;;;;;;4127938;28;20460;-79
2022/03/12 07:54:28;;;;;;;5.10;2.17;;;1.60;34.10;;;;;;4136938;28;20486;-80
2022/03/12 07:56:30;;;;;;;4.83;2.20;;;1.60;34.20;;;;;;4128009;28;20475;-79
2022/03/12 07:58:32;;;;;;;5.27;2.23;;;1.70;34.30;;;;;;4131032;28;20550;-78
2022/03/12 08:00:34;;;;;;;5.13;2.30;;;1.70;34.60;;;;;;4132776;28;20468;-79
2022/03/12 08:02:36;;;;;;;4.30;2.13;;;1.70;34.80;;;;;;4135620;28;20481;-78
2022/03/12 08:04:39;;;;;;;5.33;2.50;;;1.70;34.90;;;;;;4138822;28;20467;-79
2022/03/12 08:06:40;;;;;;;5.50;2.00;;;1.70;35.40;;;;;;4138242;28;20533;-79
2022/03/12 08:08:44;;;;;;;4.50;2.17;;;1.80;35.40;;;;;;4135772;28;20496;-79
2022/03/12 08:13:05;;;;;;;4.93;1.97;;;1.80;35.30;;;;;;4123661;28;20428;-80
2022/03/12 08:15:08;;;;;;;4.97;2.40;;;1.80;34.90;;;;;;4128305;28;21000;-80
2022/03/12 08:17:10;;;;;;;5.03;2.63;;;1.90;34.40;;;;;;4134234;28;20569;-79
2022/03/12 08:19:12;;;;;;;6.23;2.60;;;1.90;34.20;;;;;;4121142;28;20563;-80
2022/03/12 08:21:15;;;;;;;7.83;2.90;;;1.90;34.10;;;;;;4122664;28;20499;-79
2022/03/12 08:23:17;;;;;;;5.83;2.80;;;2.10;32.50;;;;;;4120711;28;20495;-80
2022/03/12 08:25:20;;;;;;;5.07;2.63;;;2.30;31.80;;;;;;4122771;28;20468;-78
2022/03/12 08:27:21;;;;;;;4.73;2.17;;;2.30;32.00;;;;;;4127359;28;20480;-80
2022/03/12 08:29:23;;;;;;;5.23;2.60;;;2.40;32.60;;;;;;4137978;28;20483;-79
2022/03/12 08:31:25;;;;;;;4.70;2.37;;;2.40;32.30;;;;;;4136787;28;20870;-79
2022/03/12 08:33:27;;;;;;;4.47;2.23;;;2.50;32.30;;;;;;4133617;28;20467;-81
2022/03/12 08:35:28;;;;;;;5.50;2.87;;;2.50;32.30;;;;;;4127216;28;20503;-80
2022/03/12 08:37:30;;;;;;;5.80;2.30;;;2.60;32.10;;;;;;4117108;28;20471;-79
2022/03/12 08:39:35;;;;;;;5.90;2.73;;;2.60;32.30;;;;;;4119109;28;20477;-80
2022/03/12 08:41:39;;;;;;;5.80;2.60;;;2.70;31.60;;;;;;4123317;28;20559;-80
2022/03/12 08:43:41;;;;;;;5.37;2.53;;;2.70;31.60;;;;;;4130367;28;20491;-79
2022/03/12 08:45:43;;;;;;;5.40;2.50;;;2.70;31.70;;;;;;4121771;28;21071;-79
2022/03/12 08:47:45;;;;;;;4.73;2.30;;;2.80;31.10;;;;;;4134294;28;20965;-79
2022/03/12 08:49:47;;;;;;;5.53;3.07;;;2.90;31.50;;;;;;4130425;28;20948;-80
2022/03/12 08:51:49;;;;;;;4.40;2.33;;;2.90;31.60;;;;;;4135091;28;20464;-79
2022/03/12 08:53:51;;;;;;;6.70;2.50;;;3.00;31.70;;;;;;4136934;28;20470;-78
2022/03/12 08:55:53;;;;;;;6.93;2.90;;;3.10;31.90;;;;;;4137690;28;20467;-79
2022/03/12 08:57:56;;;;;;;5.73;2.80;;;3.70;32.20;;;;;;4118619;28;20885;-76
2022/03/12 08:59:58;;;;;;;5.40;2.50;;;3.20;32.10;;;;;;4122681;28;20471;-76
2022/03/12 09:02:00;;;;;;;4.83;2.87;;;3.10;31.90;;;;;;4126088;28;20956;-77
2022/03/12 09:04:02;;;;;;;6.13;2.97;;;3.10;32.00;;;;;;4129401;28;20499;-77
2022/03/12 09:06:04;;;;;;;5.67;2.57;;;3.20;32.00;;;;;;4128821;28;20459;-76
2022/03/12 09:08:07;;;;;;;4.57;2.30;;;3.20;32.10;;;;;;4121619;28;20834;-76
2022/03/12 09:10:11;;;;;;;3.80;2.37;;;3.30;32.30;;;;;;4121699;28;20702;-76
2022/03/12 09:12:13;;;;;;;4.73;2.33;;;3.30;32.10;;;;;;4121011;28;20822;-76
2022/03/12 09:14:16;;;;;;;4.97;2.40;;;3.40;31.90;;;;;;4114643;28;20881;-77
2022/03/12 09:16:18;;;;;;;3.57;2.10;;;3.40;32.20;;;;;;4123421;28;20482;-76
2022/03/12 09:20:29;;;;;;;5.00;2.60;;;3.50;32.90;;;;;;4129915;28;20965;-85
2022/03/12 09:22:31;;;;;;;4.37;2.27;;;3.50;32.80;;;;;;4130715;28;20880;-84
2022/03/12 09:24:36;;;;;;;3.93;2.20;;;3.60;32.80;;;;;;4131946;28;20474;-85
2022/03/12 09:26:38;;;;;;;4.40;2.10;;;3.70;33.10;;;;;;4131710;28;20558;-84
2022/03/12 09:28:39;;;;;;;3.33;1.93;;;3.60;32.90;;;;;;4127745;28;20841;-85
2022/03/12 09:30:43;;;;;;;3.90;2.20;;;3.70;32.90;;;;;;4115453;28;20463;-84
2022/03/12 09:32:45;;;;;;;4.87;2.20;;;3.70;33.40;;;;;;4123842;28;20479;-85
2022/03/12 09:34:46;;;;;;;5.77;2.83;;;3.60;32.70;;;;;;4131315;28;20462;-85
2022/03/12 09:36:48;;;;;;;4.53;2.40;;;3.80;32.60;;;;;;4130343;28;20460;-85
2022/03/12 09:38:50;;;;;;;4.00;2.60;;;3.90;32.70;;;;;;4129798;28;20568;-84
2022/03/12 09:40:53;;;;;;;6.73;2.63;;;4.00;32.80;;;;;;4131679;28;20486;-84
2022/03/12 09:42:54;;;;;;;4.57;2.43;;;4.00;32.20;;;;;;4131954;28;20542;-84
2022/03/12 09:44:56;;;;;;;6.57;2.57;;;4.10;31.70;;;;;;4131670;28;20827;-84
2022/03/12 09:46:59;;;;;;;4.93;2.77;;;4.20;30.90;;;;;;4131755;28;20534;-85
2022/03/12 09:49:02;;;;;;;4.13;2.33;;;4.20;31.10;;;;;;4132318;28;20519;-85
2022/03/12 09:51:04;;;;;;;4.37;2.43;;;4.30;31.40;;;;;;4132904;28;20822;-85
2022/03/12 09:53:07;;;;;;;5.40;2.50;;;4.30;31.40;;;;;;4131522;28;20555;-86
2022/03/12 09:55:10;;;;;;;6.43;2.67;;;4.40;31.40;;;;;;4127682;28;20467;-86
2022/03/12 09:57:12;;;;;;;5.10;2.50;;;4.40;31.30;;;;;;4134784;28;20486;-85
2022/03/12 09:59:16;;;;;;;4.23;2.40;;;4.50;31.60;;;;;;4133101;28;21035;-86
2022/03/12 10:01:18;;;;;;;3.50;2.30;;;4.50;31.80;;;;;;4132294;28;20464;-85
2022/03/12 10:03:22;;;;;;;5.67;2.00;;;4.60;31.70;;;;;;4131045;28;20863;-85
2022/03/12 10:05:24;;;;;;;5.50;2.93;;;4.60;31.10;;;;;;4129983;28;20473;-86
2022/03/12 10:07:25;;;;;;;4.27;2.30;;;4.70;31.00;;;;;;4129031;28;20471;-85
2022/03/12 10:09:27;;;;;;;5.13;2.20;;;4.70;31.30;;;;;;4121926;28;20508;-84
2022/03/12 10:11:29;;;;;;;4.80;2.40;;;4.80;31.20;;;;;;4129510;28;20523;-86
2022/03/12 10:13:31;;;;;;;3.73;2.50;;;4.90;31.10;;;;;;4129795;28;20468;-85
2022/03/12 10:15:33;;;;;;;4.30;2.30;;;4.90;31.60;;;;;;4129153;28;20472;-85
2022/03/12 10:17:35;;;;;;;4.47;2.43;;;4.90;31.70;;;;;;4131664;28;20453;-85
2022/03/12 10:19:44;;;;;;;4.03;2.27;;;5.00;31.40;;;;;;4131727;28;20552;-85
2022/03/12 10:21:46;;;;;;;4.27;2.17;;;5.10;31.30;;;;;;4127711;28;20505;-85
2022/03/12 10:23:48;;;;;;;4.77;2.23;;;5.20;31.20;;;;;;4130566;28;20572;-85
2022/03/12 10:25:50;;;;;;;5.37;2.40;;;5.20;30.50;;;;;;4131693;28;20478;-85
2022/03/12 10:27:52;;;;;;;3.97;2.23;;;5.30;30.00;;;;;;4123516;28;20463;-85
2022/03/12 10:29:54;;;;;;;6.33;2.77;;;5.60;30.80;;;;;;4125425;28;20552;-85
2022/03/12 10:31:57;;;;;;;6.20;2.70;;;5.50;30.00;;;;;;4135347;28;20496;-86
2022/03/12 10:34:19;;;;;;;4.73;2.53;;;5.50;30.10;;;;;;4125639;28;20526;-86
2022/03/12 10:36:22;;;;;;;4.57;2.20;;;5.60;30.10;;;;;;4132667;28;20469;-87
2022/03/12 10:38:25;;;;;;;6.17;3.00;;;5.70;30.80;;;;;;4129682;28;20517;-87
2022/03/12 10:40:27;;;;;;;4.47;2.13;;;5.70;31.20;;;;;;4135172;28;20971;-87
2022/03/12 10:42:29;;;;;;;5.27;2.53;;;5.80;31.00;;;;;;4135173;28;20458;-87
2022/03/12 10:44:35;;;;;;;4.57;2.50;;;5.80;31.00;;;;;;4124489;28;20497;-87
2022/03/12 10:46:41;;;;;;;7.43;2.40;;;5.90;30.80;;;;;;4132734;28;20472;-87
2022/03/12 10:48:43;;;;;;;4.57;2.40;;;6.00;30.20;;;;;;4135938;28;20559;-87
2022/03/12 10:50:46;;;;;;;4.60;2.40;;;6.10;30.10;;;;;;4142210;28;20453;-87
2022/03/12 10:52:51;;;;;;;4.60;2.40;;;6.20;30.00;;;;;;4137220;28;20450;-87